sensor_id;sensor_type;location;lat;lon;timestamp;pressure;altitude;pressure_sealevel;temperature;humidity
31337;BME280;22846;42.654;23.314;2023-03-14T00:00:13;94704.66;;;23.94;51.69
31337;BME280;22846;42.654;23.314;2023-03-14T00:02:39;94691.00;;;23.94;51.49
31337;BME280;22846;42.654;23.314;2023-03-14T00:05:05;94697.22;;;23.95;51.80
31337;BME280;22846;42.654;23.314;2023-03-14T00:07:38;94695.69;;;23.94;51.64
31337;BME280;22846;42.654;23.314;2023-03-14T00:10:06;94688.72;;;23.93;51.97
31337;BME280;22846;42.654;23.314;2023-03-14T00:12:32;94689.47;;;23.93;51.84
31337;BME280;22846;42.654;23.314;2023-03-14T00:14:58;94684.44;;;23.92;51.43
31337;BME280;22846;42.654;23.314;2023-03-14T00:17:26;94682.47;;;23.92;51.76
31337;BME280;22846;42.654;23.314;2023-03-14T00:19:51;94675.06;;;23.93;51.50
31337;BME280;22846;42.654;23.314;2023-03-14T00:22:19;94669.69;;;23.90;51.72
31337;BME280;22846;42.654;23.314;2023-03-14T00:24:44;94667.28;;;23.92;51.57
31337;BME280;22846;42.654;23.314;2023-03-14T00:27:10;94657.25;;;23.89;51.93
31337;BME280;22846;42.654;23.314;2023-03-14T00:29:35;94650.16;;;23.91;51.98
31337;BME280;22846;42.654;23.314;2023-03-14T00:32:01;94647.09;;;23.89;51.88
31337;BME280;22846;42.654;23.314;2023-03-14T00:34:30;94648.63;;;23.90;52.00
31337;BME280;22846;42.654;23.314;2023-03-14T00:36:56;94652.22;;;23.87;51.90
31337;BME280;22846;42.654;23.314;2023-03-14T00:39:21;94648.63;;;23.90;51.51
31337;BME280;22846;42.654;23.314;2023-03-14T00:41:46;94639.75;;;23.86;51.63
31337;BME280;22846;42.654;23.314;2023-03-14T00:44:12;94645.13;;;23.90;51.45
31337;BME280;22846;42.654;23.314;2023-03-14T00:46:38;94647.09;;;23.89;51.64
31337;BME280;22846;42.654;23.314;2023-03-14T00:49:03;94643.63;;;23.89;52.01
31337;BME280;22846;42.654;23.314;2023-03-14T00:51:28;94643.63;;;23.89;51.73
31337;BME280;22846;42.654;23.314;2023-03-14T00:53:54;94643.63;;;23.89;52.08
31337;BME280;22846;42.654;23.314;2023-03-14T00:56:19;94642.84;;;23.88;51.70
31337;BME280;22846;42.654;23.314;2023-03-14T00:58:45;94645.56;;;23.88;51.64
31337;BME280;22846;42.654;23.314;2023-03-14T01:01:17;94643.28;;;23.87;51.69
31337;BME280;22846;42.654;23.314;2023-03-14T01:03:44;94630.38;;;23.87;51.70
31337;BME280;22846;42.654;23.314;2023-03-14T01:06:15;94631.56;;;23.86;51.75
31337;BME280;22846;42.654;23.314;2023-03-14T01:08:41;94632.03;;;23.85;52.11
31337;BME280;22846;42.654;23.314;2023-03-14T01:11:11;94628.09;;;23.86;51.73
31337;BME280;22846;42.654;23.314;2023-03-14T01:13:38;94628.09;;;23.86;51.93
31337;BME280;22846;42.654;23.314;2023-03-14T01:16:06;94626.56;;;23.85;52.01
31337;BME280;22846;42.654;23.314;2023-03-14T01:18:33;94619.91;;;23.86;52.06
31337;BME280;22846;42.654;23.314;2023-03-14T01:21:00;94614.44;;;23.86;51.73
31337;BME280;22846;42.654;23.314;2023-03-14T01:23:26;94610.94;;;23.85;51.83
31337;BME280;22846;42.654;23.314;2023-03-14T01:25:51;94609.44;;;23.84;51.91
31337;BME280;22846;42.654;23.314;2023-03-14T01:28:16;94612.91;;;23.85;51.80
31337;BME280;22846;42.654;23.314;2023-03-14T01:30:42;94605.19;;;23.83;52.19
31337;BME280;22846;42.654;23.314;2023-03-14T01:33:07;94605.94;;;23.84;52.21
31337;BME280;22846;42.654;23.314;2023-03-14T01:35:33;94603.97;;;23.84;51.88
31337;BME280;22846;42.654;23.314;2023-03-14T01:37:58;94601.25;;;23.84;51.91
31337;BME280;22846;42.654;23.314;2023-03-14T01:40:23;94595.78;;;23.84;52.06
31337;BME280;22846;42.654;23.314;2023-03-14T01:42:56;94598.19;;;23.82;52.23
31337;BME280;22846;42.654;23.314;2023-03-14T01:48:26;94591.63;;;23.80;51.84
31337;BME280;22846;42.654;23.314;2023-03-14T01:50:53;94592.38;;;23.80;51.88
31337;BME280;22846;42.654;23.314;2023-03-14T01:53:19;94591.94;;;23.82;52.27
31337;BME280;22846;42.654;23.314;2023-03-14T01:55:47;94592.38;;;23.80;51.86
31337;BME280;22846;42.654;23.314;2023-03-14T01:58:14;94590.44;;;23.81;51.92
31337;BME280;22846;42.654;23.314;2023-03-14T02:00:41;94588.47;;;23.81;52.19
31337;BME280;22846;42.654;23.314;2023-03-14T02:03:11;94588.47;;;23.81;52.02
31337;BME280;22846;42.654;23.314;2023-03-14T02:05:40;94584.19;;;23.80;51.97
31337;BME280;22846;42.654;23.314;2023-03-14T02:08:08;94583.09;;;23.78;52.00
31337;BME280;22846;42.654;23.314;2023-03-14T02:10:44;94588.91;;;23.80;51.91
31337;BME280;22846;42.654;23.314;2023-03-14T02:13:11;94578.84;;;23.77;51.79
31337;BME280;22846;42.654;23.314;2023-03-14T02:15:37;94579.19;;;23.79;51.78
31337;BME280;22846;42.654;23.314;2023-03-14T02:18:04;94573.06;;;23.75;52.27
31337;BME280;22846;42.654;23.314;2023-03-14T02:23:04;94571.41;;;23.77;51.80
31337;BME280;22846;42.654;23.314;2023-03-14T02:25:47;94576.88;;;23.77;52.26
31337;BME280;22846;42.654;23.314;2023-03-14T02:28:14;94573.72;;;23.79;51.99
31337;BME280;22846;42.654;23.314;2023-03-14T02:30:40;94571.41;;;23.77;52.22
31337;BME280;22846;42.654;23.314;2023-03-14T02:33:10;94571.41;;;23.77;52.42
31337;BME280;22846;42.654;23.314;2023-03-14T02:35:39;94568.28;;;23.79;52.14
31337;BME280;22846;42.654;23.314;2023-03-14T02:38:43;94577.31;;;23.76;52.12
31337;BME280;22846;42.654;23.314;2023-03-14T02:41:11;94580.03;;;23.76;52.23
31337;BME280;22846;42.654;23.314;2023-03-14T02:43:36;94587.78;;;23.77;51.92
31337;BME280;22846;42.654;23.314;2023-03-14T02:46:03;94583.56;;;23.76;51.80
31337;BME280;22846;42.654;23.314;2023-03-14T02:48:33;94585.50;;;23.76;51.95
31337;BME280;22846;42.654;23.314;2023-03-14T02:51:01;94582.03;;;23.75;52.20
31337;BME280;22846;42.654;23.314;2023-03-14T02:53:32;94577.38;;;23.72;52.24
31337;BME280;22846;42.654;23.314;2023-03-14T02:55:58;94589.00;;;23.76;51.87
31337;BME280;22846;42.654;23.314;2023-03-14T02:58:25;94585.50;;;23.76;52.23
31337;BME280;22846;42.654;23.314;2023-03-14T03:00:51;94588.22;;;23.76;51.90
31337;BME280;22846;42.654;23.314;2023-03-14T03:03:16;94585.50;;;23.76;51.91
31337;BME280;22846;42.654;23.314;2023-03-14T03:05:42;94582.50;;;23.70;51.89
31337;BME280;22846;42.654;23.314;2023-03-14T03:08:09;94591.41;;;23.74;51.84
31337;BME280;22846;42.654;23.314;2023-03-14T03:10:34;94589.41;;;23.75;52.09
31337;BME280;22846;42.654;23.314;2023-03-14T03:13:00;94589.06;;;23.73;51.94
31337;BME280;22846;42.654;23.314;2023-03-14T03:15:26;94583.97;;;23.75;51.98
31337;BME280;22846;42.654;23.314;2023-03-14T03:17:51;94578.50;;;23.75;51.93
31337;BME280;22846;42.654;23.314;2023-03-14T03:20:17;94576.94;;;23.74;51.78
31337;BME280;22846;42.654;23.314;2023-03-14T03:22:43;94581.66;;;23.73;52.13
31337;BME280;22846;42.654;23.314;2023-03-14T03:25:08;94573.22;;;23.68;52.15
31337;BME280;22846;42.654;23.314;2023-03-14T03:27:35;94580.88;;;23.73;51.99
31337;BME280;22846;42.654;23.314;2023-03-14T03:30:01;94583.59;;;23.73;51.80
31337;BME280;22846;42.654;23.314;2023-03-14T03:32:27;94580.22;;;23.69;52.24
31337;BME280;22846;42.654;23.314;2023-03-14T03:34:52;94584.03;;;23.71;51.73
31337;BME280;22846;42.654;23.314;2023-03-14T03:37:18;94571.25;;;23.68;52.09
31337;BME280;22846;42.654;23.314;2023-03-14T03:39:44;94577.38;;;23.72;51.92
31337;BME280;22846;42.654;23.314;2023-03-14T03:42:09;94574.66;;;23.72;52.23
31337;BME280;22846;42.654;23.314;2023-03-14T03:44:36;94579.03;;;23.70;51.73
31337;BME280;22846;42.654;23.314;2023-03-14T03:47:01;94584.47;;;23.70;51.81
31337;BME280;22846;42.654;23.314;2023-03-14T03:49:31;94577.59;;;23.65;51.75
31337;BME280;22846;42.654;23.314;2023-03-14T03:51:56;94592.66;;;23.70;51.82
31337;BME280;22846;42.654;23.314;2023-03-14T03:54:22;94589.59;;;23.68;51.89
31337;BME280;22846;42.654;23.314;2023-03-14T03:56:47;94597.34;;;23.69;51.97
31337;BME280;22846;42.654;23.314;2023-03-14T03:59:13;94593.41;;;23.70;52.05
31337;BME280;22846;42.654;23.314;2023-03-14T04:01:38;94587.31;;;23.66;52.03
31337;BME280;22846;42.654;23.314;2023-03-14T04:04:04;94598.13;;;23.70;51.70
31337;BME280;22846;42.654;23.314;2023-03-14T04:06:29;94588.75;;;23.71;51.06
31337;BME280;22846;42.654;23.314;2023-03-14T04:08:55;94591.63;;;23.80;50.28
31337;BME280;22846;42.654;23.314;2023-03-14T04:11:20;94591.75;;;23.89;48.90
31337;BME280;22846;42.654;23.314;2023-03-14T04:13:46;94591.09;;;23.97;50.33
31337;BME280;22846;42.654;23.314;2023-03-14T04:16:17;94586.84;;;24.08;50.32
31337;BME280;22846;42.654;23.314;2023-03-14T04:18:43;94577.25;;;24.16;49.81
31337;BME280;22846;42.654;23.314;2023-03-14T04:21:09;94578.13;;;24.26;49.55
31337;BME280;22846;42.654;23.314;2023-03-14T04:23:34;94566.22;;;24.32;48.95
31337;BME280;22846;42.654;23.314;2023-03-14T04:26:00;94565.22;;;24.39;48.79
31337;BME280;22846;42.654;23.314;2023-03-14T04:28:25;94560.00;;;24.44;48.65
31337;BME280;22846;42.654;23.314;2023-03-14T04:30:50;94553.22;;;24.49;48.96
31337;BME280;22846;42.654;23.314;2023-03-14T04:33:16;94555.72;;;24.56;48.77
31337;BME280;22846;42.654;23.314;2023-03-14T04:35:45;94546.78;;;24.55;48.50
31337;BME280;22846;42.654;23.314;2023-03-14T04:38:11;94556.59;;;24.65;48.52
31337;BME280;22846;42.654;23.314;2023-03-14T04:40:37;94551.88;;;24.66;48.77
31337;BME280;22846;42.654;23.314;2023-03-14T04:43:03;94541.16;;;24.71;47.89
31337;BME280;22846;42.654;23.314;2023-03-14T04:45:28;94539.09;;;24.75;48.12
31337;BME280;22846;42.654;23.314;2023-03-14T04:47:54;94537.31;;;24.81;47.85
31337;BME280;22846;42.654;23.314;2023-03-14T04:50:19;94541.91;;;24.84;47.31
31337;BME280;22846;42.654;23.314;2023-03-14T04:52:44;94532.81;;;24.87;48.41
31337;BME280;22846;42.654;23.314;2023-03-14T04:55:10;94520.03;;;24.84;48.94
31337;BME280;22846;42.654;23.314;2023-03-14T04:57:35;94532.75;;;24.99;49.31
31337;BME280;22846;42.654;23.314;2023-03-14T05:00:01;94527.94;;;25.03;48.98
31337;BME280;22846;42.654;23.314;2023-03-14T05:02:31;94531.22;;;25.11;49.39
31337;BME280;22846;42.654;23.314;2023-03-14T05:04:56;94533.41;;;25.16;49.25
31337;BME280;22846;42.654;23.314;2023-03-14T05:07:22;94532.81;;;25.21;48.75
31337;BME280;22846;42.654;23.314;2023-03-14T05:09:47;94538.63;;;25.23;48.89
31337;BME280;22846;42.654;23.314;2023-03-14T05:12:12;94533.47;;;25.25;48.76
31337;BME280;22846;42.654;23.314;2023-03-14T05:14:38;94529.53;;;25.26;48.83
31337;BME280;22846;42.654;23.314;2023-03-14T05:17:04;94529.81;;;25.28;48.72
31337;BME280;22846;42.654;23.314;2023-03-14T05:19:29;94536.06;;;25.28;48.46
31337;BME280;22846;42.654;23.314;2023-03-14T05:21:55;94525.59;;;25.27;47.99
31337;BME280;22846;42.654;23.314;2023-03-14T05:24:21;94528.19;;;25.30;48.39
31337;BME280;22846;42.654;23.314;2023-03-14T05:26:46;94521.94;;;25.30;48.51
31337;BME280;22846;42.654;23.314;2023-03-14T05:29:11;94518.31;;;25.33;48.32
31337;BME280;22846;42.654;23.314;2023-03-14T05:31:37;94515.59;;;25.33;48.03
31337;BME280;22846;42.654;23.314;2023-03-14T05:34:02;94510.56;;;25.31;47.76
31337;BME280;22846;42.654;23.314;2023-03-14T05:36:28;94525.66;;;25.36;47.43
31337;BME280;22846;42.654;23.314;2023-03-14T05:38:53;94518.13;;;25.27;43.15
31337;BME280;22846;42.654;23.314;2023-03-14T05:41:19;94512.91;;;25.20;42.58
31337;BME280;22846;42.654;23.314;2023-03-14T05:43:44;94519.59;;;25.19;43.11
31337;BME280;22846;42.654;23.314;2023-03-14T05:46:09;94523.22;;;25.16;44.75
31337;BME280;22846;42.654;23.314;2023-03-14T05:48:35;94527.28;;;25.12;46.07
31337;BME280;22846;42.654;23.314;2023-03-14T05:51:00;94528.16;;;25.09;46.69
31337;BME280;22846;42.654;23.314;2023-03-14T05:53:26;94527.16;;;25.03;46.73
31337;BME280;22846;42.654;23.314;2023-03-14T05:55:55;94525.47;;;24.96;46.43
31337;BME280;22846;42.654;23.314;2023-03-14T05:58:21;94523.16;;;24.95;46.74
31337;BME280;22846;42.654;23.314;2023-03-14T06:00:46;94531.34;;;24.95;46.12
31337;BME280;22846;42.654;23.314;2023-03-14T06:03:12;94531.81;;;24.93;46.60
31337;BME280;22846;42.654;23.314;2023-03-14T06:05:37;94519.47;;;24.89;46.30
31337;BME280;22846;42.654;23.314;2023-03-14T06:08:03;94525.69;;;24.89;46.61
31337;BME280;22846;42.654;23.314;2023-03-14T06:10:29;94523.41;;;24.88;46.93
31337;BME280;22846;42.654;23.314;2023-03-14T06:12:54;94523.06;;;24.86;46.50
31337;BME280;22846;42.654;23.314;2023-03-14T06:15:19;94520.78;;;24.84;46.56
31337;BME280;22846;42.654;23.314;2023-03-14T06:17:45;94517.41;;;24.80;46.47
31337;BME280;22846;42.654;23.314;2023-03-14T06:20:11;94519.72;;;24.82;46.22
31337;BME280;22846;42.654;23.314;2023-03-14T06:22:36;94512.00;;;24.56;28.31
31337;BME280;22846;42.654;23.314;2023-03-14T06:25:03;94519.03;;;24.07;24.00
31337;BME280;22846;42.654;23.314;2023-03-14T06:27:29;94525.53;;;23.60;22.98
31337;BME280;22846;42.654;23.314;2023-03-14T06:29:54;94526.19;;;23.23;29.67
31337;BME280;22846;42.654;23.314;2023-03-14T06:32:19;94526.69;;;23.06;32.84
31337;BME280;22846;42.654;23.314;2023-03-14T06:34:45;94535.28;;;23.04;26.99
31337;BME280;22846;42.654;23.314;2023-03-14T06:37:11;94540.91;;;22.97;29.41
31337;BME280;22846;42.654;23.314;2023-03-14T06:39:36;94539.06;;;22.94;31.53
31337;BME280;22846;42.654;23.314;2023-03-14T06:42:03;94525.75;;;22.96;31.77
31337;BME280;22846;42.654;23.314;2023-03-14T06:44:29;94514.19;;;22.92;32.00
31337;BME280;22846;42.654;23.314;2023-03-14T06:46:54;94515.00;;;23.05;34.37
31337;BME280;22846;42.654;23.314;2023-03-14T06:49:19;94515.16;;;23.14;37.16
31337;BME280;22846;42.654;23.314;2023-03-14T06:51:45;94506.91;;;23.30;38.04
31337;BME280;22846;42.654;23.314;2023-03-14T06:54:10;94506.19;;;23.42;39.62
31337;BME280;22846;42.654;23.314;2023-03-14T06:56:36;94491.34;;;23.43;39.79
31337;BME280;22846;42.654;23.314;2023-03-14T06:59:01;94506.66;;;23.65;40.49
31337;BME280;22846;42.654;23.314;2023-03-14T07:01:28;94493.16;;;23.74;40.74
31337;BME280;22846;42.654;23.314;2023-03-14T07:03:54;94493.28;;;23.83;40.42
31337;BME280;22846;42.654;23.314;2023-03-14T07:06:20;94485.75;;;23.87;40.65
31337;BME280;22846;42.654;23.314;2023-03-14T07:08:45;94490.09;;;23.97;41.24
31337;BME280;22846;42.654;23.314;2023-03-14T07:11:11;94478.97;;;24.04;41.27
31337;BME280;22846;42.654;23.314;2023-03-14T07:13:38;94481.16;;;24.09;40.61
31337;BME280;22846;42.654;23.314;2023-03-14T07:16:04;94477.88;;;24.14;41.17
31337;BME280;22846;42.654;23.314;2023-03-14T07:18:30;94463.47;;;24.13;41.04
31337;BME280;22846;42.654;23.314;2023-03-14T07:20:55;94477.22;;;24.22;41.12
31337;BME280;22846;42.654;23.314;2023-03-14T07:23:21;94486.50;;;24.25;40.98
31337;BME280;22846;42.654;23.314;2023-03-14T07:25:46;94481.78;;;24.25;40.93
31337;BME280;22846;42.654;23.314;2023-03-14T07:28:12;94487.03;;;24.32;41.19
31337;BME280;22846;42.654;23.314;2023-03-14T07:30:37;94474.56;;;24.31;40.95
31337;BME280;22846;42.654;23.314;2023-03-14T07:33:02;94471.59;;;24.38;41.53
31337;BME280;22846;42.654;23.314;2023-03-14T07:35:28;94466.47;;;24.40;41.69
31337;BME280;22846;42.654;23.314;2023-03-14T07:37:53;94472.16;;;24.46;41.79
31337;BME280;22846;42.654;23.314;2023-03-14T07:40:19;94469.31;;;24.49;41.59
31337;BME280;22846;42.654;23.314;2023-03-14T07:42:44;94468.41;;;24.52;41.59
31337;BME280;22846;42.654;23.314;2023-03-14T07:45:10;94461.00;;;24.53;42.03
31337;BME280;22846;42.654;23.314;2023-03-14T07:47:36;94459.81;;;24.54;41.50
31337;BME280;22846;42.654;23.314;2023-03-14T07:50:03;94459.69;;;24.57;41.99
31337;BME280;22846;42.654;23.314;2023-03-14T07:52:29;94452.22;;;24.58;42.15
31337;BME280;22846;42.654;23.314;2023-03-14T07:54:54;94458.66;;;24.64;42.28
31337;BME280;22846;42.654;23.314;2023-03-14T07:57:20;94460.97;;;24.65;42.09
31337;BME280;22846;42.654;23.314;2023-03-14T07:59:45;94455.50;;;24.65;42.23
31337;BME280;22846;42.654;23.314;2023-03-14T08:02:11;94451.56;;;24.66;42.63
31337;BME280;22846;42.654;23.314;2023-03-14T08:04:37;94457.31;;;24.68;42.45
31337;BME280;22846;42.654;23.314;2023-03-14T08:07:03;94450.66;;;24.69;42.20
31337;BME280;22846;42.654;23.314;2023-03-14T08:09:29;94450.66;;;24.69;42.65
31337;BME280;22846;42.654;23.314;2023-03-14T08:11:54;94456.00;;;24.73;42.34
31337;BME280;22846;42.654;23.314;2023-03-14T08:14:20;94453.59;;;24.75;42.47
31337;BME280;22846;42.654;23.314;2023-03-14T08:16:45;94455.88;;;24.76;42.47
31337;BME280;22846;42.654;23.314;2023-03-14T08:19:10;94430.44;;;24.67;43.04
31337;BME280;22846;42.654;23.314;2023-03-14T08:21:36;94449.53;;;24.79;42.79
31337;BME280;22846;42.654;23.314;2023-03-14T08:24:02;94452.59;;;24.81;42.72
31337;BME280;22846;42.654;23.314;2023-03-14T08:26:27;94449.41;;;24.82;42.85
31337;BME280;22846;42.654;23.314;2023-03-14T08:28:53;94441.97;;;24.83;43.16
31337;BME280;22846;42.654;23.314;2023-03-14T08:31:18;94446.25;;;24.84;43.28
31337;BME280;22846;42.654;23.314;2023-03-14T08:33:44;94434.06;;;24.85;42.91
31337;BME280;22846;42.654;23.314;2023-03-14T08:36:09;94434.84;;;24.85;43.13
31337;BME280;22846;42.654;23.314;2023-03-14T08:38:35;94432.88;;;24.86;43.24
31337;BME280;22846;42.654;23.314;2023-03-14T08:41:01;94434.41;;;24.87;43.37
31337;BME280;22846;42.654;23.314;2023-03-14T08:43:28;94433.19;;;24.88;43.26
31337;BME280;22846;42.654;23.314;2023-03-14T08:45:57;94425.78;;;24.88;43.27
31337;BME280;22846;42.654;23.314;2023-03-14T08:48:23;94423.03;;;24.88;43.07
31337;BME280;22846;42.654;23.314;2023-03-14T08:50:49;94425.00;;;24.88;43.26
31337;BME280;22846;42.654;23.314;2023-03-14T08:53:14;94415.59;;;24.89;43.11
31337;BME280;22846;42.654;23.314;2023-03-14T08:55:40;94406.19;;;24.90;43.20
31337;BME280;22846;42.654;23.314;2023-03-14T08:58:05;94407.72;;;24.91;43.36
31337;BME280;22846;42.654;23.314;2023-03-14T09:00:31;94394.19;;;24.87;43.63
31337;BME280;22846;42.654;23.314;2023-03-14T09:02:56;94396.78;;;24.91;43.46
31337;BME280;22846;42.654;23.314;2023-03-14T09:05:21;94383.66;;;24.86;43.46
31337;BME280;22846;42.654;23.314;2023-03-14T09:07:47;94384.31;;;24.90;43.59
31337;BME280;22846;42.654;23.314;2023-03-14T09:10:12;94384.31;;;24.90;43.79
31337;BME280;22846;42.654;23.314;2023-03-14T09:12:38;94377.66;;;24.91;43.44
31337;BME280;22846;42.654;23.314;2023-03-14T09:15:04;94373.38;;;24.90;43.58
31337;BME280;22846;42.654;23.314;2023-03-14T09:17:29;94362.78;;;24.92;43.82
31337;BME280;22846;42.654;23.314;2023-03-14T09:19:55;94357.72;;;24.90;43.85
31337;BME280;22846;42.654;23.314;2023-03-14T09:22:20;94360.03;;;24.92;43.90
31337;BME280;22846;42.654;23.314;2023-03-14T09:24:46;94348.00;;;24.89;44.00
31337;BME280;22846;42.654;23.314;2023-03-14T09:27:12;94341.94;;;24.85;43.90
31337;BME280;22846;42.654;23.314;2023-03-14T09:29:37;94337.06;;;24.89;44.05
31337;BME280;22846;42.654;23.314;2023-03-14T09:32:03;94336.50;;;24.94;44.00
31337;BME280;22846;42.654;23.314;2023-03-14T09:34:29;94333.78;;;24.94;44.58
31337;BME280;22846;42.654;23.314;2023-03-14T09:36:54;94323.72;;;24.91;44.29
31337;BME280;22846;42.654;23.314;2023-03-14T09:39:20;94324.38;;;24.95;44.03
31337;BME280;22846;42.654;23.314;2023-03-14T09:41:52;94319.31;;;24.94;44.32
31337;BME280;22846;42.654;23.314;2023-03-14T09:44:29;94322.06;;;24.94;43.94
31337;BME280;22846;42.654;23.314;2023-03-14T09:46:58;94320.53;;;24.93;44.13
31337;BME280;22846;42.654;23.314;2023-03-14T09:49:33;94313.25;;;24.90;43.80
31337;BME280;22846;42.654;23.314;2023-03-14T09:52:02;94302.50;;;24.95;44.35
31337;BME280;22846;42.654;23.314;2023-03-14T09:54:39;94296.25;;;24.95;44.03
31337;BME280;22846;42.654;23.314;2023-03-14T09:57:12;94290.34;;;24.96;44.07
31337;BME280;22846;42.654;23.314;2023-03-14T09:59:39;94286.53;;;24.94;44.30
31337;BME280;22846;42.654;23.314;2023-03-14T10:02:21;94281.19;;;24.90;44.31
31337;BME280;22846;42.654;23.314;2023-03-14T10:04:49;94278.47;;;24.90;44.35
31337;BME280;22846;42.654;23.314;2023-03-14T10:07:29;94281.38;;;24.96;44.48
31337;BME280;22846;42.654;23.314;2023-03-14T10:09:55;94278.97;;;24.98;44.21
31337;BME280;22846;42.654;23.314;2023-03-14T10:12:33;94267.84;;;24.92;44.06
31337;BME280;22846;42.654;23.314;2023-03-14T10:15:08;94268.91;;;24.95;44.28
31337;BME280;22846;42.654;23.314;2023-03-14T10:17:42;94261.50;;;24.95;44.61
31337;BME280;22846;42.654;23.314;2023-03-14T10:20:35;94251.31;;;24.96;44.55
31337;BME280;22846;42.654;23.314;2023-03-14T10:25:38;94239.91;;;24.97;44.54
31337;BME280;22846;42.654;23.314;2023-03-14T10:28:04;94228.53;;;24.99;44.51
31337;BME280;22846;42.654;23.314;2023-03-14T10:33:08;94226.25;;;24.97;44.25
31337;BME280;22846;42.654;23.314;2023-03-14T10:35:35;94216.09;;;24.98;44.26
31337;BME280;22846;42.654;23.314;2023-03-14T10:38:02;94211.38;;;24.98;44.29
31337;BME280;22846;42.654;23.314;2023-03-14T10:40:31;94199.69;;;24.98;44.40
31337;BME280;22846;42.654;23.314;2023-03-14T10:43:03;94191.03;;;24.99;44.81
31337;BME280;22846;42.654;23.314;2023-03-14T10:48:05;94192.53;;;25.00;44.68
31337;BME280;22846;42.654;23.314;2023-03-14T10:50:32;94176.59;;;24.99;44.63
31337;BME280;22846;42.654;23.314;2023-03-14T10:53:01;94170.50;;;24.95;44.93
31337;BME280;22846;42.654;23.314;2023-03-14T10:55:42;94158.69;;;24.98;44.75
31337;BME280;22846;42.654;23.314;2023-03-14T10:58:20;94162.31;;;24.95;44.64
31337;BME280;22846;42.654;23.314;2023-03-14T11:00:57;94154.88;;;24.95;44.11
31337;BME280;22846;42.654;23.314;2023-03-14T11:03:27;94150.63;;;24.94;44.63
31337;BME280;22846;42.654;23.314;2023-03-14T11:06:11;94144.09;;;24.92;44.40
31337;BME280;22846;42.654;23.314;2023-03-14T11:11:23;94137.28;;;24.96;44.72
31337;BME280;22846;42.654;23.314;2023-03-14T11:27:42;94081.06;;;24.95;44.72
31337;BME280;22846;42.654;23.314;2023-03-14T11:33:14;94076.34;;;24.96;44.59
31337;BME280;22846;42.654;23.314;2023-03-14T11:40:45;94058.44;;;24.95;44.67
31337;BME280;22846;42.654;23.314;2023-03-14T11:43:16;94052.53;;;24.96;44.75
31337;BME280;22846;42.654;23.314;2023-03-14T11:45:45;94055.41;;;25.02;44.16
31337;BME280;22846;42.654;23.314;2023-03-14T11:48:32;94051.28;;;24.97;44.46
31337;BME280;22846;42.654;23.314;2023-03-14T11:51:02;94043.88;;;24.98;44.23
31337;BME280;22846;42.654;23.314;2023-03-14T11:53:47;94038.41;;;24.98;44.39
31337;BME280;22846;42.654;23.314;2023-03-14T11:56:25;94035.19;;;24.99;44.26
31337;BME280;22846;42.654;23.314;2023-03-14T11:59:01;94026.25;;;24.99;44.48
31337;BME280;22846;42.654;23.314;2023-03-14T12:01:36;94007.84;;;24.90;44.66
31337;BME280;22846;42.654;23.314;2023-03-14T12:04:29;94018.34;;;25.01;44.44
31337;BME280;22846;42.654;23.314;2023-03-14T12:07:01;94008.16;;;25.01;44.44
31337;BME280;22846;42.654;23.314;2023-03-14T12:09:29;94001.97;;;25.01;44.45
31337;BME280;22846;42.654;23.314;2023-03-14T12:11:57;94001.19;;;25.00;44.15
31337;BME280;22846;42.654;23.314;2023-03-14T12:14:37;93982.34;;;24.93;44.40
31337;BME280;22846;42.654;23.314;2023-03-14T12:17:27;93979.78;;;24.99;44.46
31337;BME280;22846;42.654;23.314;2023-03-14T12:20:18;93977.63;;;25.03;45.08
31337;BME280;22846;42.654;23.314;2023-03-14T12:22:54;93941.97;;;24.88;44.46
31337;BME280;22846;42.654;23.314;2023-03-14T12:25:24;93962.16;;;25.09;44.88
31337;BME280;22846;42.654;23.314;2023-03-14T12:30:26;93957.59;;;24.97;31.87
31337;BME280;22846;42.654;23.314;2023-03-14T12:33:29;93954.13;;;24.87;28.27
31337;BME280;22846;42.654;23.314;2023-03-14T12:36:00;93954.56;;;24.77;28.28
31337;BME280;22846;42.654;23.314;2023-03-14T12:43:34;93941.34;;;24.49;24.97
31337;BME280;22846;42.654;23.314;2023-03-14T12:48:38;93928.09;;;24.20;25.52
31337;BME280;22846;42.654;23.314;2023-03-14T12:51:15;93935.50;;;24.20;25.24
31337;BME280;22846;42.654;23.314;2023-03-14T12:54:29;93925.50;;;24.17;27.36
31337;BME280;22846;42.654;23.314;2023-03-14T12:56:54;93919.88;;;24.20;32.70
31337;BME280;22846;42.654;23.314;2023-03-14T13:01:58;93903.69;;;24.35;35.53
31337;BME280;22846;42.654;23.314;2023-03-14T13:04:53;93883.34;;;24.36;33.84
31337;BME280;22846;42.654;23.314;2023-03-14T13:12:57;93886.88;;;24.63;35.40
31337;BME280;22846;42.654;23.314;2023-03-14T13:18:12;93881.72;;;24.74;36.51
31337;BME280;22846;42.654;23.314;2023-03-14T13:21:02;93875.47;;;24.82;36.74
31337;BME280;22846;42.654;23.314;2023-03-14T13:23:33;93869.41;;;24.87;37.11
31337;BME280;22846;42.654;23.314;2023-03-14T13:26:00;93857.53;;;24.90;37.38
31337;BME280;22846;42.654;23.314;2023-03-14T13:28:27;93841.59;;;24.89;37.53
31337;BME280;22846;42.654;23.314;2023-03-14T13:31:00;93841.44;;;24.92;37.84
31337;BME280;22846;42.654;23.314;2023-03-14T13:33:25;93842.16;;;25.02;38.04
31337;BME280;22846;42.654;23.314;2023-03-14T13:36:00;93835.31;;;25.06;38.38
31337;BME280;22846;42.654;23.314;2023-03-14T13:38:29;93827.75;;;25.10;38.76
31337;BME280;22846;42.654;23.314;2023-03-14T13:41:05;93825.31;;;25.12;38.63
31337;BME280;22846;42.654;23.314;2023-03-14T13:43:49;93816.81;;;25.10;39.11
31337;BME280;22846;42.654;23.314;2023-03-14T13:46:21;93816.00;;;25.19;38.85
31337;BME280;22846;42.654;23.314;2023-03-14T13:48:48;93807.50;;;25.26;38.90
31337;BME280;22846;42.654;23.314;2023-03-14T13:51:16;93801.72;;;25.24;39.15
31337;BME280;22846;42.654;23.314;2023-03-14T13:53:44;93793.53;;;25.24;39.35